sensor_id;sensor_type;location;lat;lon;timestamp;temperature;humidity
32809;DHT22;19159;48.178;16.386;2023-06-19T00:00:38;26.70;79.20
32809;DHT22;19159;48.178;16.386;2023-06-19T00:03:05;26.60;78.80
32809;DHT22;19159;48.178;16.386;2023-06-19T00:05:30;26.60;78.80
32809;DHT22;19159;48.178;16.386;2023-06-19T00:07:56;26.60;79.40
32809;DHT22;19159;48.178;16.386;2023-06-19T00:10:22;26.60;79.30
32809;DHT22;19159;48.178;16.386;2023-06-19T00:12:48;26.50;79.20
32809;DHT22;19159;48.178;16.386;2023-06-19T00:15:14;26.50;80.20
32809;DHT22;19159;48.178;16.386;2023-06-19T00:17:40;26.50;80.70
32809;DHT22;19159;48.178;16.386;2023-06-19T00:20:07;26.50;81.20
32809;DHT22;19159;48.178;16.386;2023-06-19T00:22:33;26.40;81.00
32809;DHT22;19159;48.178;16.386;2023-06-19T00:24:58;26.40;80.80
32809;DHT22;19159;48.178;16.386;2023-06-19T00:27:24;26.40;80.70
32809;DHT22;19159;48.178;16.386;2023-06-19T00:29:53;26.30;80.60
32809;DHT22;19159;48.178;16.386;2023-06-19T00:32:18;26.30;81.20
32809;DHT22;19159;48.178;16.386;2023-06-19T00:34:44;26.30;81.40
32809;DHT22;19159;48.178;16.386;2023-06-19T00:37:09;26.20;82.80
32809;DHT22;19159;48.178;16.386;2023-06-19T00:39:38;26.20;83.10
32809;DHT22;19159;48.178;16.386;2023-06-19T00:42:04;26.00;82.70
32809;DHT22;19159;48.178;16.386;2023-06-19T00:44:30;25.90;82.90
32809;DHT22;19159;48.178;16.386;2023-06-19T00:46:58;25.80;83.20
32809;DHT22;19159;48.178;16.386;2023-06-19T00:49:28;25.70;83.40
32809;DHT22;19159;48.178;16.386;2023-06-19T00:51:53;25.50;83.90
32809;DHT22;19159;48.178;16.386;2023-06-19T00:54:20;25.40;84.40
32809;DHT22;19159;48.178;16.386;2023-06-19T00:56:45;25.40;84.00
32809;DHT22;19159;48.178;16.386;2023-06-19T00:59:15;25.50;83.80
32809;DHT22;19159;48.178;16.386;2023-06-19T01:01:42;25.60;83.90
32809;DHT22;19159;48.178;16.386;2023-06-19T01:04:08;25.60;83.70
32809;DHT22;19159;48.178;16.386;2023-06-19T01:06:51;25.60;83.50
32809;DHT22;19159;48.178;16.386;2023-06-19T01:09:20;25.60;83.70
32809;DHT22;19159;48.178;16.386;2023-06-19T01:11:56;25.70;84.50
32809;DHT22;19159;48.178;16.386;2023-06-19T01:14:28;25.60;84.40
32809;DHT22;19159;48.178;16.386;2023-06-19T01:16:56;25.60;83.90
32809;DHT22;19159;48.178;16.386;2023-06-19T01:19:22;25.60;83.70
32809;DHT22;19159;48.178;16.386;2023-06-19T01:21:48;25.60;83.60
32809;DHT22;19159;48.178;16.386;2023-06-19T01:24:14;25.60;83.80
32809;DHT22;19159;48.178;16.386;2023-06-19T01:26:41;25.60;84.40
32809;DHT22;19159;48.178;16.386;2023-06-19T01:29:07;25.60;84.60
32809;DHT22;19159;48.178;16.386;2023-06-19T01:31:38;25.50;84.80
32809;DHT22;19159;48.178;16.386;2023-06-19T01:34:10;25.50;84.90
32809;DHT22;19159;48.178;16.386;2023-06-19T01:36:37;25.40;85.50
32809;DHT22;19159;48.178;16.386;2023-06-19T01:39:04;25.40;85.30
32809;DHT22;19159;48.178;16.386;2023-06-19T01:41:31;25.30;84.90
32809;DHT22;19159;48.178;16.386;2023-06-19T01:43:58;25.40;85.00
32809;DHT22;19159;48.178;16.386;2023-06-19T01:46:24;25.30;85.10
32809;DHT22;19159;48.178;16.386;2023-06-19T01:48:50;25.30;85.60
32809;DHT22;19159;48.178;16.386;2023-06-19T01:51:17;25.30;86.00
32809;DHT22;19159;48.178;16.386;2023-06-19T01:53:42;25.20;86.10
32809;DHT22;19159;48.178;16.386;2023-06-19T01:56:08;25.20;86.30
32809;DHT22;19159;48.178;16.386;2023-06-19T01:58:34;25.20;86.60
32809;DHT22;19159;48.178;16.386;2023-06-19T02:00:59;25.10;86.70
32809;DHT22;19159;48.178;16.386;2023-06-19T02:03:25;25.10;86.90
32809;DHT22;19159;48.178;16.386;2023-06-19T02:05:50;25.00;87.80
32809;DHT22;19159;48.178;16.386;2023-06-19T02:08:16;25.00;86.90
32809;DHT22;19159;48.178;16.386;2023-06-19T02:10:42;25.00;87.10
32809;DHT22;19159;48.178;16.386;2023-06-19T02:13:07;24.90;87.40
32809;DHT22;19159;48.178;16.386;2023-06-19T02:15:33;24.90;87.60
32809;DHT22;19159;48.178;16.386;2023-06-19T02:17:59;24.90;88.00
32809;DHT22;19159;48.178;16.386;2023-06-19T02:20:25;24.80;88.30
32809;DHT22;19159;48.178;16.386;2023-06-19T02:22:51;24.70;88.50
32809;DHT22;19159;48.178;16.386;2023-06-19T02:25:17;24.70;88.70
32809;DHT22;19159;48.178;16.386;2023-06-19T02:27:43;24.60;88.90
32809;DHT22;19159;48.178;16.386;2023-06-19T02:30:09;24.60;89.20
32809;DHT22;19159;48.178;16.386;2023-06-19T02:32:35;24.50;89.40
32809;DHT22;19159;48.178;16.386;2023-06-19T02:35:01;24.50;89.70
32809;DHT22;19159;48.178;16.386;2023-06-19T02:37:26;24.50;89.80
32809;DHT22;19159;48.178;16.386;2023-06-19T02:39:52;24.50;90.00
32809;DHT22;19159;48.178;16.386;2023-06-19T02:42:17;24.40;89.90
32809;DHT22;19159;48.178;16.386;2023-06-19T02:44:43;24.30;90.10
32809;DHT22;19159;48.178;16.386;2023-06-19T02:47:09;24.30;90.30
32809;DHT22;19159;48.178;16.386;2023-06-19T02:49:34;24.20;90.70
32809;DHT22;19159;48.178;16.386;2023-06-19T02:52:00;24.20;90.40
32809;DHT22;19159;48.178;16.386;2023-06-19T02:54:26;24.30;90.40
32809;DHT22;19159;48.178;16.386;2023-06-19T02:56:51;24.30;90.50
32809;DHT22;19159;48.178;16.386;2023-06-19T02:59:17;24.30;90.40
32809;DHT22;19159;48.178;16.386;2023-06-19T03:01:42;24.30;90.40
32809;DHT22;19159;48.178;16.386;2023-06-19T03:04:08;24.30;90.60
32809;DHT22;19159;48.178;16.386;2023-06-19T03:06:34;24.30;90.70
32809;DHT22;19159;48.178;16.386;2023-06-19T03:09:05;24.30;90.80
32809;DHT22;19159;48.178;16.386;2023-06-19T03:11:40;24.30;90.80
32809;DHT22;19159;48.178;16.386;2023-06-19T03:14:06;24.30;90.80
32809;DHT22;19159;48.178;16.386;2023-06-19T03:16:33;24.30;90.90
32809;DHT22;19159;48.178;16.386;2023-06-19T03:18:59;24.30;91.10
32809;DHT22;19159;48.178;16.386;2023-06-19T03:21:25;24.30;91.10
32809;DHT22;19159;48.178;16.386;2023-06-19T03:23:50;24.30;90.90
32809;DHT22;19159;48.178;16.386;2023-06-19T03:26:16;24.30;90.90
32809;DHT22;19159;48.178;16.386;2023-06-19T03:28:41;24.30;90.90
32809;DHT22;19159;48.178;16.386;2023-06-19T03:31:07;24.30;91.00
32809;DHT22;19159;48.178;16.386;2023-06-19T03:33:33;24.10;91.20
32809;DHT22;19159;48.178;16.386;2023-06-19T03:35:59;24.00;91.50
32809;DHT22;19159;48.178;16.386;2023-06-19T03:38:24;23.90;91.70
32809;DHT22;19159;48.178;16.386;2023-06-19T03:40:50;23.80;91.80
32809;DHT22;19159;48.178;16.386;2023-06-19T03:43:15;23.80;91.90
32809;DHT22;19159;48.178;16.386;2023-06-19T03:45:41;23.80;92.00
32809;DHT22;19159;48.178;16.386;2023-06-19T03:48:07;23.90;92.10
32809;DHT22;19159;48.178;16.386;2023-06-19T03:50:32;23.90;92.10
32809;DHT22;19159;48.178;16.386;2023-06-19T03:52:58;24.00;91.90
32809;DHT22;19159;48.178;16.386;2023-06-19T03:55:23;24.00;92.10
32809;DHT22;19159;48.178;16.386;2023-06-19T03:57:49;24.00;92.20
32809;DHT22;19159;48.178;16.386;2023-06-19T04:00:16;24.00;92.10
32809;DHT22;19159;48.178;16.386;2023-06-19T04:02:43;24.00;91.90
32809;DHT22;19159;48.178;16.386;2023-06-19T04:05:11;24.10;91.90
32809;DHT22;19159;48.178;16.386;2023-06-19T04:07:37;24.20;92.00
32809;DHT22;19159;48.178;16.386;2023-06-19T04:10:03;24.20;92.10
32809;DHT22;19159;48.178;16.386;2023-06-19T04:12:29;24.20;92.00
32809;DHT22;19159;48.178;16.386;2023-06-19T04:14:54;24.20;91.80
32809;DHT22;19159;48.178;16.386;2023-06-19T04:17:20;24.30;91.90
32809;DHT22;19159;48.178;16.386;2023-06-19T04:19:46;24.40;92.00
32809;DHT22;19159;48.178;16.386;2023-06-19T04:22:11;24.40;92.10
32809;DHT22;19159;48.178;16.386;2023-06-19T04:24:37;24.40;92.10
32809;DHT22;19159;48.178;16.386;2023-06-19T04:27:02;24.50;92.10
32809;DHT22;19159;48.178;16.386;2023-06-19T04:29:28;24.60;92.10
32809;DHT22;19159;48.178;16.386;2023-06-19T04:31:59;24.70;92.10
32809;DHT22;19159;48.178;16.386;2023-06-19T04:34:25;24.70;92.10
32809;DHT22;19159;48.178;16.386;2023-06-19T04:36:51;24.80;91.90
32809;DHT22;19159;48.178;16.386;2023-06-19T04:39:17;24.90;91.70
32809;DHT22;19159;48.178;16.386;2023-06-19T04:41:43;25.00;91.70
32809;DHT22;19159;48.178;16.386;2023-06-19T04:44:10;25.00;91.50
32809;DHT22;19159;48.178;16.386;2023-06-19T04:46:38;25.10;91.40
32809;DHT22;19159;48.178;16.386;2023-06-19T04:49:05;25.20;91.40
32809;DHT22;19159;48.178;16.386;2023-06-19T04:51:31;25.30;91.40
32809;DHT22;19159;48.178;16.386;2023-06-19T04:53:58;25.50;91.20
32809;DHT22;19159;48.178;16.386;2023-06-19T04:56:24;25.60;91.10
32809;DHT22;19159;48.178;16.386;2023-06-19T04:58:50;25.70;91.10
32809;DHT22;19159;48.178;16.386;2023-06-19T05:01:17;25.90;90.90
32809;DHT22;19159;48.178;16.386;2023-06-19T05:03:45;26.10;90.50
32809;DHT22;19159;48.178;16.386;2023-06-19T05:06:11;26.20;90.00
32809;DHT22;19159;48.178;16.386;2023-06-19T05:08:37;26.30;89.40
32809;DHT22;19159;48.178;16.386;2023-06-19T05:11:03;26.40;89.20
32809;DHT22;19159;48.178;16.386;2023-06-19T05:13:29;26.50;89.00
32809;DHT22;19159;48.178;16.386;2023-06-19T05:15:55;26.60;88.90
32809;DHT22;19159;48.178;16.386;2023-06-19T05:18:22;26.70;88.40
32809;DHT22;19159;48.178;16.386;2023-06-19T05:20:47;26.80;88.30
32809;DHT22;19159;48.178;16.386;2023-06-19T05:23:13;26.90;88.10
32809;DHT22;19159;48.178;16.386;2023-06-19T05:25:38;26.90;87.90
32809;DHT22;19159;48.178;16.386;2023-06-19T05:28:04;27.00;87.60
32809;DHT22;19159;48.178;16.386;2023-06-19T05:30:30;27.10;86.90
32809;DHT22;19159;48.178;16.386;2023-06-19T05:32:55;27.20;86.40
32809;DHT22;19159;48.178;16.386;2023-06-19T05:35:21;27.30;85.90
32809;DHT22;19159;48.178;16.386;2023-06-19T05:37:47;27.40;85.70
32809;DHT22;19159;48.178;16.386;2023-06-19T05:40:13;27.40;85.50
32809;DHT22;19159;48.178;16.386;2023-06-19T05:42:39;27.40;85.50
32809;DHT22;19159;48.178;16.386;2023-06-19T05:45:06;27.40;84.70
32809;DHT22;19159;48.178;16.386;2023-06-19T05:47:31;27.50;84.40
32809;DHT22;19159;48.178;16.386;2023-06-19T05:49:57;27.60;84.40
32809;DHT22;19159;48.178;16.386;2023-06-19T05:52:23;27.70;84.30
32809;DHT22;19159;48.178;16.386;2023-06-19T05:54:49;27.80;84.10
32809;DHT22;19159;48.178;16.386;2023-06-19T05:57:15;27.90;83.90
32809;DHT22;19159;48.178;16.386;2023-06-19T05:59:42;28.00;83.50
32809;DHT22;19159;48.178;16.386;2023-06-19T06:02:08;28.00;82.70
32809;DHT22;19159;48.178;16.386;2023-06-19T06:04:34;28.00;82.50
32809;DHT22;19159;48.178;16.386;2023-06-19T06:07:02;28.10;83.10
32809;DHT22;19159;48.178;16.386;2023-06-19T06:09:28;28.10;82.70
32809;DHT22;19159;48.178;16.386;2023-06-19T06:11:53;28.20;81.70
32809;DHT22;19159;48.178;16.386;2023-06-19T06:14:19;28.30;81.70
32809;DHT22;19159;48.178;16.386;2023-06-19T06:16:45;28.40;81.10
32809;DHT22;19159;48.178;16.386;2023-06-19T06:19:10;28.50;81.00
32809;DHT22;19159;48.178;16.386;2023-06-19T06:21:36;28.60;80.80
32809;DHT22;19159;48.178;16.386;2023-06-19T06:24:02;28.70;79.30
32809;DHT22;19159;48.178;16.386;2023-06-19T06:26:28;28.60;78.20
32809;DHT22;19159;48.178;16.386;2023-06-19T06:28:54;28.50;77.90
32809;DHT22;19159;48.178;16.386;2023-06-19T06:31:21;28.50;78.30
32809;DHT22;19159;48.178;16.386;2023-06-19T06:33:47;28.60;78.50
32809;DHT22;19159;48.178;16.386;2023-06-19T06:36:14;28.70;78.20
32809;DHT22;19159;48.178;16.386;2023-06-19T06:38:40;28.80;77.80
32809;DHT22;19159;48.178;16.386;2023-06-19T06:41:06;28.70;76.90
32809;DHT22;19159;48.178;16.386;2023-06-19T06:43:32;28.60;77.00
32809;DHT22;19159;48.178;16.386;2023-06-19T06:45:57;28.60;76.80
32809;DHT22;19159;48.178;16.386;2023-06-19T06:48:23;28.50;76.20
32809;DHT22;19159;48.178;16.386;2023-06-19T06:50:48;28.50;77.10
32809;DHT22;19159;48.178;16.386;2023-06-19T06:53:14;28.70;77.70
32809;DHT22;19159;48.178;16.386;2023-06-19T06:55:40;28.90;77.40
32809;DHT22;19159;48.178;16.386;2023-06-19T06:58:05;29.00;76.60
32809;DHT22;19159;48.178;16.386;2023-06-19T07:00:31;29.10;76.30
32809;DHT22;19159;48.178;16.386;2023-06-19T07:02:56;29.30;76.30
32809;DHT22;19159;48.178;16.386;2023-06-19T07:05:22;29.30;76.00
32809;DHT22;19159;48.178;16.386;2023-06-19T07:07:48;29.20;75.60
32809;DHT22;19159;48.178;16.386;2023-06-19T07:10:13;29.30;76.20
32809;DHT22;19159;48.178;16.386;2023-06-19T07:12:48;29.40;75.80
32809;DHT22;19159;48.178;16.386;2023-06-19T07:15:16;29.40;76.10
32809;DHT22;19159;48.178;16.386;2023-06-19T07:17:44;29.50;76.20
32809;DHT22;19159;48.178;16.386;2023-06-19T07:20:10;29.70;76.20
32809;DHT22;19159;48.178;16.386;2023-06-19T07:22:36;29.70;74.80
32809;DHT22;19159;48.178;16.386;2023-06-19T07:25:02;29.80;75.40
32809;DHT22;19159;48.178;16.386;2023-06-19T07:27:29;29.80;75.00
32809;DHT22;19159;48.178;16.386;2023-06-19T07:29:55;29.90;74.00
32809;DHT22;19159;48.178;16.386;2023-06-19T07:32:20;29.90;74.20
32809;DHT22;19159;48.178;16.386;2023-06-19T07:34:46;30.00;74.40
32809;DHT22;19159;48.178;16.386;2023-06-19T07:37:12;29.90;74.80
32809;DHT22;19159;48.178;16.386;2023-06-19T07:39:46;29.80;74.70
32809;DHT22;19159;48.178;16.386;2023-06-19T07:42:16;30.00;75.30
32809;DHT22;19159;48.178;16.386;2023-06-19T07:44:43;30.10;75.20
32809;DHT22;19159;48.178;16.386;2023-06-19T07:47:09;30.10;74.90
32809;DHT22;19159;48.178;16.386;2023-06-19T07:49:35;30.10;74.70
32809;DHT22;19159;48.178;16.386;2023-06-19T07:52:02;30.00;74.30
32809;DHT22;19159;48.178;16.386;2023-06-19T07:54:28;30.00;74.80
32809;DHT22;19159;48.178;16.386;2023-06-19T07:56:53;30.10;74.80
32809;DHT22;19159;48.178;16.386;2023-06-19T07:59:19;30.30;75.10
32809;DHT22;19159;48.178;16.386;2023-06-19T08:01:45;30.30;74.80
32809;DHT22;19159;48.178;16.386;2023-06-19T08:04:11;30.40;75.70
32809;DHT22;19159;48.178;16.386;2023-06-19T08:06:36;30.60;75.00
32809;DHT22;19159;48.178;16.386;2023-06-19T08:09:05;30.70;74.90
32809;DHT22;19159;48.178;16.386;2023-06-19T08:11:31;30.80;75.20
32809;DHT22;19159;48.178;16.386;2023-06-19T08:13:56;30.90;74.80
32809;DHT22;19159;48.178;16.386;2023-06-19T08:16:24;30.80;75.40
32809;DHT22;19159;48.178;16.386;2023-06-19T08:18:49;30.80;75.70
32809;DHT22;19159;48.178;16.386;2023-06-19T08:21:15;31.00;76.20
32809;DHT22;19159;48.178;16.386;2023-06-19T08:23:41;30.90;75.00
32809;DHT22;19159;48.178;16.386;2023-06-19T08:26:09;30.80;75.30
32809;DHT22;19159;48.178;16.386;2023-06-19T08:28:35;30.80;75.30
32809;DHT22;19159;48.178;16.386;2023-06-19T08:31:00;30.90;74.80
32809;DHT22;19159;48.178;16.386;2023-06-19T08:33:26;30.60;74.30
32809;DHT22;19159;48.178;16.386;2023-06-19T08:35:52;30.50;74.80
32809;DHT22;19159;48.178;16.386;2023-06-19T08:38:18;30.50;75.10
32809;DHT22;19159;48.178;16.386;2023-06-19T08:40:44;30.40;74.50
32809;DHT22;19159;48.178;16.386;2023-06-19T08:43:10;30.40;74.70
32809;DHT22;19159;48.178;16.386;2023-06-19T08:45:36;30.60;76.20
32809;DHT22;19159;48.178;16.386;2023-06-19T08:48:02;30.80;74.60
32809;DHT22;19159;48.178;16.386;2023-06-19T08:50:29;30.90;74.50
32809;DHT22;19159;48.178;16.386;2023-06-19T08:52:56;30.80;74.50
32809;DHT22;19159;48.178;16.386;2023-06-19T08:55:22;30.90;74.60
32809;DHT22;19159;48.178;16.386;2023-06-19T08:57:48;30.70;73.10
32809;DHT22;19159;48.178;16.386;2023-06-19T09:00:27;30.70;73.20
32809;DHT22;19159;48.178;16.386;2023-06-19T09:03:01;30.60;73.60
32809;DHT22;19159;48.178;16.386;2023-06-19T09:05:28;30.50;74.00
32809;DHT22;19159;48.178;16.386;2023-06-19T09:07:55;30.50;74.80
32809;DHT22;19159;48.178;16.386;2023-06-19T09:10:21;30.50;74.50
32809;DHT22;19159;48.178;16.386;2023-06-19T09:12:59;30.70;74.20
32809;DHT22;19159;48.178;16.386;2023-06-19T09:15:31;30.90;74.10
32809;DHT22;19159;48.178;16.386;2023-06-19T09:20:28;31.10;74.70
32809;DHT22;19159;48.178;16.386;2023-06-19T09:22:57;31.10;73.40
32809;DHT22;19159;48.178;16.386;2023-06-19T09:25:23;31.00;72.90
32809;DHT22;19159;48.178;16.386;2023-06-19T09:27:50;31.10;72.90
32809;DHT22;19159;48.178;16.386;2023-06-19T09:30:16;31.10;73.00
32809;DHT22;19159;48.178;16.386;2023-06-19T09:32:42;31.30;73.40
32809;DHT22;19159;48.178;16.386;2023-06-19T09:35:07;31.30;72.80
32809;DHT22;19159;48.178;16.386;2023-06-19T09:37:33;31.20;73.10
32809;DHT22;19159;48.178;16.386;2023-06-19T09:40:01;31.00;73.60
32809;DHT22;19159;48.178;16.386;2023-06-19T09:42:36;31.00;73.90
32809;DHT22;19159;48.178;16.386;2023-06-19T09:45:07;31.10;73.10
32809;DHT22;19159;48.178;16.386;2023-06-19T09:47:38;31.30;74.10
32809;DHT22;19159;48.178;16.386;2023-06-19T09:50:06;31.00;73.00
32809;DHT22;19159;48.178;16.386;2023-06-19T09:52:33;31.00;73.40
32809;DHT22;19159;48.178;16.386;2023-06-19T09:55:02;30.80;73.00
32809;DHT22;19159;48.178;16.386;2023-06-19T09:57:29;31.00;73.30
32809;DHT22;19159;48.178;16.386;2023-06-19T09:59:55;31.20;73.20
32809;DHT22;19159;48.178;16.386;2023-06-19T10:02:22;31.10;73.10
32809;DHT22;19159;48.178;16.386;2023-06-19T10:04:53;31.20;73.30
32809;DHT22;19159;48.178;16.386;2023-06-19T10:07:34;31.10;73.50
32809;DHT22;19159;48.178;16.386;2023-06-19T10:10:08;31.40;74.30
32809;DHT22;19159;48.178;16.386;2023-06-19T10:12:47;31.70;74.20
32809;DHT22;19159;48.178;16.386;2023-06-19T10:15:18;31.90;72.60
32809;DHT22;19159;48.178;16.386;2023-06-19T10:17:50;31.40;72.40
32809;DHT22;19159;48.178;16.386;2023-06-19T10:22:57;31.80;73.10
32809;DHT22;19159;48.178;16.386;2023-06-19T10:25:26;31.80;71.40
32809;DHT22;19159;48.178;16.386;2023-06-19T10:27:52;31.90;71.40
32809;DHT22;19159;48.178;16.386;2023-06-19T10:30:19;31.80;71.20
32809;DHT22;19159;48.178;16.386;2023-06-19T10:32:46;31.90;71.30
32809;DHT22;19159;48.178;16.386;2023-06-19T10:35:12;31.80;70.60
32809;DHT22;19159;48.178;16.386;2023-06-19T10:37:38;31.90;71.00
32809;DHT22;19159;48.178;16.386;2023-06-19T10:40:04;32.10;72.30
32809;DHT22;19159;48.178;16.386;2023-06-19T10:42:39;32.10;71.10
32809;DHT22;19159;48.178;16.386;2023-06-19T10:45:08;32.10;70.90
32809;DHT22;19159;48.178;16.386;2023-06-19T10:47:39;31.90;70.50
32809;DHT22;19159;48.178;16.386;2023-06-19T10:50:12;31.90;70.20
32809;DHT22;19159;48.178;16.386;2023-06-19T10:52:43;31.90;71.20
32809;DHT22;19159;48.178;16.386;2023-06-19T10:55:09;31.90;71.90
32809;DHT22;19159;48.178;16.386;2023-06-19T10:57:35;31.70;71.40
32809;DHT22;19159;48.178;16.386;2023-06-19T11:00:01;31.80;71.20
32809;DHT22;19159;48.178;16.386;2023-06-19T11:02:31;31.80;70.90
32809;DHT22;19159;48.178;16.386;2023-06-19T11:04:57;31.90;71.80
32809;DHT22;19159;48.178;16.386;2023-06-19T11:07:23;31.80;71.40
32809;DHT22;19159;48.178;16.386;2023-06-19T11:09:49;31.80;70.80
32809;DHT22;19159;48.178;16.386;2023-06-19T11:12:21;31.70;70.20
32809;DHT22;19159;48.178;16.386;2023-06-19T11:14:48;31.80;68.80
32809;DHT22;19159;48.178;16.386;2023-06-19T11:17:15;31.70;69.20
32809;DHT22;19159;48.178;16.386;2023-06-19T11:19:41;31.70;70.40
32809;DHT22;19159;48.178;16.386;2023-06-19T11:22:09;31.90;71.00
32809;DHT22;19159;48.178;16.386;2023-06-19T11:24:35;32.00;70.90
32809;DHT22;19159;48.178;16.386;2023-06-19T11:27:00;32.00;70.00
32809;DHT22;19159;48.178;16.386;2023-06-19T11:29:30;32.10;70.50
32809;DHT22;19159;48.178;16.386;2023-06-19T11:32:09;31.90;69.20
32809;DHT22;19159;48.178;16.386;2023-06-19T11:34:36;31.70;67.80
32809;DHT22;19159;48.178;16.386;2023-06-19T11:39:37;31.80;69.00
32809;DHT22;19159;48.178;16.386;2023-06-19T11:42:03;31.70;68.40
32809;DHT22;19159;48.178;16.386;2023-06-19T11:44:28;31.70;67.50
32809;DHT22;19159;48.178;16.386;2023-06-19T11:46:57;31.90;68.20
32809;DHT22;19159;48.178;16.386;2023-06-19T11:49:24;32.00;68.50
32809;DHT22;19159;48.178;16.386;2023-06-19T11:51:50;31.90;67.50
32809;DHT22;19159;48.178;16.386;2023-06-19T11:54:16;31.90;66.70
32809;DHT22;19159;48.178;16.386;2023-06-19T11:56:43;32.10;67.90
32809;DHT22;19159;48.178;16.386;2023-06-19T11:59:09;32.00;67.00
32809;DHT22;19159;48.178;16.386;2023-06-19T12:01:36;32.10;66.20
32809;DHT22;19159;48.178;16.386;2023-06-19T12:04:02;32.10;64.50
32809;DHT22;19159;48.178;16.386;2023-06-19T12:06:29;32.10;62.60
32809;DHT22;19159;48.178;16.386;2023-06-19T12:08:54;31.90;62.00
32809;DHT22;19159;48.178;16.386;2023-06-19T12:11:20;32.00;62.80
32809;DHT22;19159;48.178;16.386;2023-06-19T12:13:46;31.80;63.40
32809;DHT22;19159;48.178;16.386;2023-06-19T12:16:13;31.60;62.80
32809;DHT22;19159;48.178;16.386;2023-06-19T12:18:39;31.50;59.00
32809;DHT22;19159;48.178;16.386;2023-06-19T12:21:05;31.70;58.90
32809;DHT22;19159;48.178;16.386;2023-06-19T12:23:32;31.60;60.50
32809;DHT22;19159;48.178;16.386;2023-06-19T12:25:57;31.80;60.80
32809;DHT22;19159;48.178;16.386;2023-06-19T12:28:23;31.90;57.70
32809;DHT22;19159;48.178;16.386;2023-06-19T12:30:49;32.00;57.20
32809;DHT22;19159;48.178;16.386;2023-06-19T12:33:18;32.00;56.10
32809;DHT22;19159;48.178;16.386;2023-06-19T12:35:44;31.90;56.90
32809;DHT22;19159;48.178;16.386;2023-06-19T12:38:10;31.90;56.40
32809;DHT22;19159;48.178;16.386;2023-06-19T12:40:37;31.90;58.40
32809;DHT22;19159;48.178;16.386;2023-06-19T12:43:03;32.00;58.30
32809;DHT22;19159;48.178;16.386;2023-06-19T12:45:29;32.00;58.20
32809;DHT22;19159;48.178;16.386;2023-06-19T12:47:55;31.90;57.20
32809;DHT22;19159;48.178;16.386;2023-06-19T12:50:20;31.80;57.40
32809;DHT22;19159;48.178;16.386;2023-06-19T12:52:46;31.80;56.20
32809;DHT22;19159;48.178;16.386;2023-06-19T12:55:12;31.80;56.90
32809;DHT22;19159;48.178;16.386;2023-06-19T12:57:37;31.90;57.60
32809;DHT22;19159;48.178;16.386;2023-06-19T13:00:04;31.90;58.70
32809;DHT22;19159;48.178;16.386;2023-06-19T13:02:33;32.00;59.10
32809;DHT22;19159;48.178;16.386;2023-06-19T13:04:59;32.10;59.50
32809;DHT22;19159;48.178;16.386;2023-06-19T13:07:24;32.20;59.50
32809;DHT22;19159;48.178;16.386;2023-06-19T13:09:50;32.20;59.40
32809;DHT22;19159;48.178;16.386;2023-06-19T13:12:16;32.30;59.40
32809;DHT22;19159;48.178;16.386;2023-06-19T13:14:41;32.40;59.50
32809;DHT22;19159;48.178;16.386;2023-06-19T13:17:07;32.50;59.50
32809;DHT22;19159;48.178;16.386;2023-06-19T13:19:33;32.50;58.90
32809;DHT22;19159;48.178;16.386;2023-06-19T13:21:58;32.30;58.40
32809;DHT22;19159;48.178;16.386;2023-06-19T13:24:24;32.20;58.60
32809;DHT22;19159;48.178;16.386;2023-06-19T13:26:53;32.20;58.40
32809;DHT22;19159;48.178;16.386;2023-06-19T13:29:18;32.20;58.70
32809;DHT22;19159;48.178;16.386;2023-06-19T13:31:44;32.30;58.70
32809;DHT22;19159;48.178;16.386;2023-06-19T13:34:10;32.20;58.00
32809;DHT22;19159;48.178;16.386;2023-06-19T13:36:35;32.10;58.00
32809;DHT22;19159;48.178;16.386;2023-06-19T13:39:01;32.30;58.10
32809;DHT22;19159;48.178;16.386;2023-06-19T13:41:27;32.30;57.80
32809;DHT22;19159;48.178;16.386;2023-06-19T13:43:56;32.10;57.20
32809;DHT22;19159;48.178;16.386;2023-06-19T13:46:22;32.00;57.30
32809;DHT22;19159;48.178;16.386;2023-06-19T13:48:48;32.10;57.60
32809;DHT22;19159;48.178;16.386;2023-06-19T13:51:22;31.90;57.40
32809;DHT22;19159;48.178;16.386;2023-06-19T13:53:49;31.80;57.50
32809;DHT22;19159;48.178;16.386;2023-06-19T13:56:15;31.80;57.80
32809;DHT22;19159;48.178;16.386;2023-06-19T13:58:41;31.80;58.10
32809;DHT22;19159;48.178;16.386;2023-06-19T14:01:07;31.80;57.60
32809;DHT22;19159;48.178;16.386;2023-06-19T14:03:32;32.10;57.70
32809;DHT22;19159;48.178;16.386;2023-06-19T14:05:58;32.10;57.20
32809;DHT22;19159;48.178;16.386;2023-06-19T14:08:24;32.10;57.20
32809;DHT22;19159;48.178;16.386;2023-06-19T14:10:50;31.90;56.90
32809;DHT22;19159;48.178;16.386;2023-06-19T14:13:16;31.90;57.20
32809;DHT22;19159;48.178;16.386;2023-06-19T14:15:42;32.00;57.30
32809;DHT22;19159;48.178;16.386;2023-06-19T14:18:07;32.10;57.10
32809;DHT22;19159;48.178;16.386;2023-06-19T14:20:33;32.00;56.60
32809;DHT22;19159;48.178;16.386;2023-06-19T14:22:59;32.20;56.90
32809;DHT22;19159;48.178;16.386;2023-06-19T14:25:24;32.00;56.40
32809;DHT22;19159;48.178;16.386;2023-06-19T14:27:50;31.90;55.80
32809;DHT22;19159;48.178;16.386;2023-06-19T14:30:16;32.10;56.30
32809;DHT22;19159;48.178;16.386;2023-06-19T14:32:41;32.10;56.50
32809;DHT22;19159;48.178;16.386;2023-06-19T14:35:07;32.20;56.30
32809;DHT22;19159;48.178;16.386;2023-06-19T14:37:33;32.10;56.20
32809;DHT22;19159;48.178;16.386;2023-06-19T14:39:58;32.00;56.20
32809;DHT22;19159;48.178;16.386;2023-06-19T14:42:24;31.70;56.10
32809;DHT22;19159;48.178;16.386;2023-06-19T14:44:50;31.70;56.50
32809;DHT22;19159;48.178;16.386;2023-06-19T14:47:15;31.80;56.30
32809;DHT22;19159;48.178;16.386;2023-06-19T14:49:41;31.80;56.00
32809;DHT22;19159;48.178;16.386;2023-06-19T14:52:07;31.90;56.30
32809;DHT22;19159;48.178;16.386;2023-06-19T14:54:32;31.90;56.10
32809;DHT22;19159;48.178;16.386;2023-06-19T14:56:58;32.10;56.40
32809;DHT22;19159;48.178;16.386;2023-06-19T14:59:24;32.10;56.80
32809;DHT22;19159;48.178;16.386;2023-06-19T15:01:50;32.20;57.00
32809;DHT22;19159;48.178;16.386;2023-06-19T15:04:16;32.20;57.00
32809;DHT22;19159;48.178;16.386;2023-06-19T15:06:41;32.20;57.20
32809;DHT22;19159;48.178;16.386;2023-06-19T15:09:07;32.30;57.30
32809;DHT22;19159;48.178;16.386;2023-06-19T15:11:33;32.40;57.10
32809;DHT22;19159;48.178;16.386;2023-06-19T15:13:59;32.30;56.90
32809;DHT22;19159;48.178;16.386;2023-06-19T15:16:25;32.30;56.90
32809;DHT22;19159;48.178;16.386;2023-06-19T15:18:51;32.40;57.00